TimeMST,TemperatureF,Dew PointF,Humidity,Sea Level PressureIn,VisibilityMPH,Wind Direction,Wind SpeedMPH,Gust SpeedMPH,PrecipitationIn,Events,Conditions,WindDirDegrees,DateUTC
12:53 AM,46.0,24.1,42,29.91,10.0,West,8.1,-,N/A,,Clear,270,2012-11-21 07:53:00
1:53 AM,45.0,23.0,42,29.91,10.0,West,6.9,-,N/A,,Clear,260,2012-11-21 08:53:00
2:53 AM,46.0,23.0,40,29.88,10.0,WSW,6.9,-,N/A,,Clear,250,2012-11-21 09:53:00
3:53 AM,44.1,23.0,43,29.89,10.0,West,8.1,-,N/A,,Clear,260,2012-11-21 10:53:00
4:53 AM,44.1,23.0,43,29.89,10.0,West,4.6,-,N/A,,Clear,260,2012-11-21 11:53:00
5:53 AM,43.0,21.9,43,29.89,10.0,West,6.9,-,N/A,,Clear,260,2012-11-21 12:53:00
6:53 AM,42.1,21.9,45,29.86,10.0,WSW,6.9,-,N/A,,Clear,240,2012-11-21 13:53:00
7:53 AM,44.1,23.0,43,29.85,10.0,West,6.9,-,N/A,,Clear,270,2012-11-21 14:53:00
8:53 AM,48.9,23.0,36,29.81,10.0,West,6.9,-,N/A,,Clear,260,2012-11-21 15:53:00
9:53 AM,52.0,23.0,32,29.78,10.0,Variable,5.8,18.4,N/A,,Clear,0,2012-11-21 16:53:00
10:53 AM,52.0,23.0,32,29.75,10.0,WSW,8.1,-,N/A,,Clear,250,2012-11-21 17:53:00
11:53 AM,52.0,21.9,31,29.70,10.0,WSW,11.5,27.6,N/A,,Clear,240,2012-11-21 18:53:00
12:53 PM,52.0,21.0,30,29.69,10.0,WSW,17.3,29.9,N/A,,Clear,250,2012-11-21 19:53:00
1:53 PM,52.0,21.0,30,29.67,10.0,WSW,13.8,24.2,N/A,,Clear,250,2012-11-21 20:53:00
2:53 PM,54.0,19.9,26,29.64,10.0,WSW,11.5,29.9,N/A,,Clear,240,2012-11-21 21:53:00
3:53 PM,55.0,19.9,25,29.65,10.0,WSW,16.1,32.2,N/A,,Clear,250,2012-11-21 22:53:00
4:53 PM,54.0,19.9,26,29.65,10.0,WSW,17.3,34.5,N/A,,Clear,250,2012-11-21 23:53:00
5:53 PM,54.0,21.0,28,29.65,10.0,WSW,20.7,39.1,N/A,,Clear,250,2012-11-22 00:53:00
6:53 PM,53.1,19.9,27,29.66,10.0,WSW,19.6,34.5,N/A,,Clear,250,2012-11-22 01:53:00
7:53 PM,51.1,21.0,31,29.68,10.0,WSW,19.6,34.5,N/A,,Clear,240,2012-11-22 02:53:00
8:53 PM,50.0,21.9,33,29.68,10.0,West,17.3,33.4,N/A,,Clear,260,2012-11-22 03:53:00
9:53 PM,48.0,21.9,36,29.69,10.0,West,12.7,27.6,N/A,,Clear,260,2012-11-22 04:53:00
10:53 PM,46.0,21.9,39,29.71,10.0,West,5.8,-,N/A,,Clear,270,2012-11-22 05:53:00
11:53 PM,41.0,21.9,47,29.74,10.0,Calm,Calm,-,N/A,,Clear,0,2012-11-22 06:53:00